Bilbao Bridge — VRHY6 — position and weather

sailwx.info

Track history (hours):
 
Tides and Currents Weather Stations Pressure Air Temp Water Temp Dewpoint Dewpoint Depression Visibility Wind Speed Wind Dir Waves Ship Positions

Bilbao Bridge

Last reported at 2018-Apr-21 19:00 UTC. Time now 2018-Apr-21 19:28 UTC.
Position N 43°35' E 010°18'.

Length 268 m; draft 9.5 m.

Type: Ship (hazmat cat D). MMSI: 477866300.

Date/timePositionNaut miles runAvg speedWind from/ knotsBaromVisibWave heightAir tempDewpointWater temp
2018-Apr-21 19:00N 43°35' E 010°18'0 0.0
2018-Apr-21 18:27N 43°35' E 010°18'0 0.0
2018-Apr-21 18:00N 43°35' E 010°18'0 0.0
2018-Apr-21 17:30N 43°35' E 010°18'0 0.0
2018-Apr-21 17:00N 43°35' E 010°18'0 0.0
2018-Apr-21 16:30N 43°35' E 010°18'0 0.0
2018-Apr-21 16:00N 43°35' E 010°18'0 0.0
2018-Apr-21 15:30N 43°35' E 010°18'0 0.0
2018-Apr-21 15:00N 43°34' E 010°18'0 0.0
2018-Apr-21 14:27N 43°35' E 010°18'0 0.0
2018-Apr-21 14:00N 43°35' E 010°18'0 0.0
2018-Apr-21 13:30N 43°35' E 010°18'0 0.0
2018-Apr-21 13:00N 43°35' E 010°18'0 0.0
2018-Apr-21 12:30N 43°35' E 010°18'0 0.0
2018-Apr-21 12:00N 43°35' E 010°18'0 0.0
2018-Apr-21 11:27N 43°34' E 010°18'0 0.0
2018-Apr-21 11:00N 43°35' E 010°18'0 0.0
2018-Apr-21 10:30N 43°35' E 010°18'0 0.0
2018-Apr-21 10:00N 43°35' E 010°18'0 0.0
2018-Apr-21 09:30N 43°35' E 010°18'0 0.0
2018-Apr-21 08:57N 43°34' E 010°18'0 0.0
2018-Apr-21 08:30N 43°35' E 010°18'0 0.0
2018-Apr-21 08:00N 43°35' E 010°18'0 0.0
2018-Apr-21 07:30N 43°34' E 010°18'0 0.0
2018-Apr-21 07:00N 43°34' E 010°18'0 0.1
2018-Apr-21 06:30N 43°34' E 010°18'1 2.0
2018-Apr-21 06:00N 43°34' E 010°18'3 6.0
2018-Apr-21 05:30N 43°31' E 010°15'1 1.1
2018-Apr-21 05:00N 43°31' E 010°15'2 4.8
2018-Apr-21 04:30N 43°29' E 010°12'0 1.0
2018-Apr-21 04:00N 43°29' E 010°12'0 0.1
2018-Apr-21 03:30N 43°29' E 010°12'0 0.4
2018-Apr-21 03:00N 43°29' E 010°12'0 0.6
2018-Apr-21 02:30N 43°29' E 010°12'2 4.8
2018-Apr-21 02:00N 43°26' E 010°11'4 8.4
2018-Apr-21 01:30N 43°22' E 010°10'510.3
2018-Apr-21 01:00N 43°17' E 010°10'612.4
2018-Apr-21 00:30N 43°11' E 010°09'612.2
2018-Apr-21 00:00N 43°05' E 010°07'611.9
2018-Apr-20 23:30N 42°59' E 010°05'611.9
2018-Apr-20 23:00N 42°53' E 010°04'611.8
2018-Apr-20 22:30N 42°47' E 010°02'712.1
2018-Apr-20 21:55N 42°41' E 010°06'8 1.6
2018-Apr-20 16:53N 42°36' E 010°14'411.3
2018-Apr-20 16:29N 42°33' E 010°19'611.7
2018-Apr-20 15:59N 42°30' E 010°25'711.9
2018-Apr-20 15:22N 42°25' E 010°33'14712.1
2018-Apr-20 03:16N 41°02' E 013°15'611.9
2018-Apr-20 02:47N 40°59' E 013°21'1511.9
2018-Apr-20 01:31N 40°48' E 013°35'512.1
2018-Apr-20 01:04N 40°44' E 013°40'312.0
2018-Apr-20 00:51N 40°42' E 013°42'412.1
2018-Apr-20 00:30N 40°40' E 013°47'612.3
2018-Apr-20 00:00N 40°36' E 013°53'612.4
2018-Apr-19 23:30N 40°33' E 014°00'612.7
2018-Apr-19 23:00N 40°31' E 014°08'812.3
2018-Apr-19 22:22N 40°31' E 014°18'412.3
2018-Apr-19 22:00N 40°32' E 014°24'612.4
2018-Apr-19 21:30N 40°33' E 014°32'612.6
2018-Apr-19 21:00N 40°35' E 014°40'2 0.2
2018-Apr-19 06:58N 40°37' E 014°42'2 4.7
2018-Apr-19 06:29N 40°35' E 014°40'2 4.1
2018-Apr-19 05:58N 40°33' E 014°39'611.8
2018-Apr-19 05:28N 40°29' E 014°33'612.2
2018-Apr-19 04:59N 40°27' E 014°26'612.3
2018-Apr-19 04:30N 40°25' E 014°19'612.4
2018-Apr-19 04:00N 40°22' E 014°11'612.5
2018-Apr-19 03:30N 40°20' E 014°04'612.4
2018-Apr-19 03:00N 40°18' E 013°56'19812.2
2018-Apr-18 10:43N 39°03' E 009°57'1715.4
2018-Apr-18 09:36N 38°58' E 009°37'215.2
2018-Apr-18 09:29N 38°57' E 009°34'715.4
2018-Apr-18 09:00N 38°54' E 009°26'815.1
2018-Apr-18 08:30N 38°52' E 009°17'815.2
2018-Apr-18 08:00N 38°49' E 009°07'815.8
2018-Apr-18 07:30N 38°46' E 008°58'816.3
2018-Apr-18 07:00N 38°44' E 008°48'917.9
2018-Apr-18 06:29N 38°41' E 008°37'  
2018-Apr-14 03:39N 39°07' W 027°15'317.1
2018-Apr-14 03:26N 39°07' W 027°19'717.0
2018-Apr-14 03:00N 39°08' W 027°29'917.2
2018-Apr-14 02:30N 39°09' W 027°40'917.2
2018-Apr-14 02:00N 39°10' W 027°51'917.5
2018-Apr-14 01:30N 39°12' W 028°02'917.3
2018-Apr-14 01:00N 39°13' W 028°13'917.4
2018-Apr-14 00:30N 39°14' W 028°24'917.4
2018-Apr-14 00:00N 39°15' W 028°35'1117.4
2018-Apr-13 23:24N 39°15' W 028°49'1217.2
2018-Apr-13 22:43N 39°15' W 029°04'417.4
2018-Apr-13 22:29N 39°15' W 029°09'817.7
2018-Apr-13 22:00N 39°15' W 029°20'917.4
2018-Apr-13 21:31N 39°15' W 029°31'917.0
2018-Apr-13 21:00N 39°15' W 029°43'816.8
2018-Apr-13 20:30N 39°15' W 029°53'2717.2
2018-Apr-13 18:55N 39°15' W 030°29'1717.4
2018-Apr-13 17:57N 39°15' W 030°50'817.1
2018-Apr-13 17:30N 39°16' W 031°00'1217.4
2018-Apr-13 16:50N 39°15' W 031°15'616.9
2018-Apr-13 16:30N 39°15' W 031°22'1017.3
2018-Apr-13 15:56N 39°15' W 031°35'  
Track history (hours):
 
Tides and Currents Weather Stations Pressure Air Temp Water Temp Dewpoint Dewpoint Depression Visibility Wind Speed Wind Dir Waves Ship Positions

Bilbao Bridge

Last reported at 2018-Apr-21 19:00 UTC. Time now 2018-Apr-21 19:28 UTC.
Position N 43°35' E 010°18'.

Length 268 m; draft 9.5 m.

Type: Ship (hazmat cat D). MMSI: 477866300.

Date/timePositionNaut miles runAvg speedWind from/ knotsBaromVisibWave heightAir tempDewpointWater temp
2018-Apr-21 19:00N 43°35' E 010°18'0 0.0
2018-Apr-21 18:27N 43°35' E 010°18'0 0.0
2018-Apr-21 18:00N 43°35' E 010°18'0 0.0
2018-Apr-21 17:30N 43°35' E 010°18'0 0.0
2018-Apr-21 17:00N 43°35' E 010°18'0 0.0
2018-Apr-21 16:30N 43°35' E 010°18'0 0.0
2018-Apr-21 16:00N 43°35' E 010°18'0 0.0
2018-Apr-21 15:30N 43°35' E 010°18'0 0.0
2018-Apr-21 15:00N 43°34' E 010°18'0 0.0
2018-Apr-21 14:27N 43°35' E 010°18'0 0.0
2018-Apr-21 14:00N 43°35' E 010°18'0 0.0
2018-Apr-21 13:30N 43°35' E 010°18'0 0.0
2018-Apr-21 13:00N 43°35' E 010°18'0 0.0
2018-Apr-21 12:30N 43°35' E 010°18'0 0.0
2018-Apr-21 12:00N 43°35' E 010°18'0 0.0
2018-Apr-21 11:27N 43°34' E 010°18'0 0.0
2018-Apr-21 11:00N 43°35' E 010°18'0 0.0
2018-Apr-21 10:30N 43°35' E 010°18'0 0.0
2018-Apr-21 10:00N 43°35' E 010°18'0 0.0
2018-Apr-21 09:30N 43°35' E 010°18'0 0.0
2018-Apr-21 08:57N 43°34' E 010°18'0 0.0
2018-Apr-21 08:30N 43°35' E 010°18'0 0.0
2018-Apr-21 08:00N 43°35' E 010°18'0 0.0
2018-Apr-21 07:30N 43°34' E 010°18'0 0.0
2018-Apr-21 07:00N 43°34' E 010°18'0 0.1
2018-Apr-21 06:30N 43°34' E 010°18'1 2.0
2018-Apr-21 06:00N 43°34' E 010°18'3 6.0
2018-Apr-21 05:30N 43°31' E 010°15'1 1.1
2018-Apr-21 05:00N 43°31' E 010°15'2 4.8
2018-Apr-21 04:30N 43°29' E 010°12'0 1.0
2018-Apr-21 04:00N 43°29' E 010°12'0 0.1
2018-Apr-21 03:30N 43°29' E 010°12'0 0.4
2018-Apr-21 03:00N 43°29' E 010°12'0 0.6
2018-Apr-21 02:30N 43°29' E 010°12'2 4.8
2018-Apr-21 02:00N 43°26' E 010°11'4 8.4
2018-Apr-21 01:30N 43°22' E 010°10'510.3
2018-Apr-21 01:00N 43°17' E 010°10'612.4
2018-Apr-21 00:30N 43°11' E 010°09'612.2
2018-Apr-21 00:00N 43°05' E 010°07'611.9
2018-Apr-20 23:30N 42°59' E 010°05'611.9
2018-Apr-20 23:00N 42°53' E 010°04'611.8
2018-Apr-20 22:30N 42°47' E 010°02'712.1
2018-Apr-20 21:55N 42°41' E 010°06'8 1.6
2018-Apr-20 16:53N 42°36' E 010°14'411.3
2018-Apr-20 16:29N 42°33' E 010°19'611.7
2018-Apr-20 15:59N 42°30' E 010°25'711.9
2018-Apr-20 15:22N 42°25' E 010°33'14712.1
2018-Apr-20 03:16N 41°02' E 013°15'611.9
2018-Apr-20 02:47N 40°59' E 013°21'1511.9
2018-Apr-20 01:31N 40°48' E 013°35'512.1
2018-Apr-20 01:04N 40°44' E 013°40'312.0
2018-Apr-20 00:51N 40°42' E 013°42'412.1
2018-Apr-20 00:30N 40°40' E 013°47'612.3
2018-Apr-20 00:00N 40°36' E 013°53'612.4
2018-Apr-19 23:30N 40°33' E 014°00'612.7
2018-Apr-19 23:00N 40°31' E 014°08'812.3
2018-Apr-19 22:22N 40°31' E 014°18'412.3
2018-Apr-19 22:00N 40°32' E 014°24'612.4
2018-Apr-19 21:30N 40°33' E 014°32'612.6
2018-Apr-19 21:00N 40°35' E 014°40'2 0.2
2018-Apr-19 06:58N 40°37' E 014°42'2 4.7
2018-Apr-19 06:29N 40°35' E 014°40'2 4.1
2018-Apr-19 05:58N 40°33' E 014°39'611.8
2018-Apr-19 05:28N 40°29' E 014°33'612.2
2018-Apr-19 04:59N 40°27' E 014°26'612.3
2018-Apr-19 04:30N 40°25' E 014°19'612.4
2018-Apr-19 04:00N 40°22' E 014°11'612.5
2018-Apr-19 03:30N 40°20' E 014°04'612.4
2018-Apr-19 03:00N 40°18' E 013°56'19812.2
2018-Apr-18 10:43N 39°03' E 009°57'1715.4
2018-Apr-18 09:36N 38°58' E 009°37'215.2
2018-Apr-18 09:29N 38°57' E 009°34'715.4
2018-Apr-18 09:00N 38°54' E 009°26'815.1
2018-Apr-18 08:30N 38°52' E 009°17'815.2
2018-Apr-18 08:00N 38°49' E 009°07'815.8
2018-Apr-18 07:30N 38°46' E 008°58'816.3
2018-Apr-18 07:00N 38°44' E 008°48'917.9
2018-Apr-18 06:29N 38°41' E 008°37'  
2018-Apr-14 03:39N 39°07' W 027°15'317.1
2018-Apr-14 03:26N 39°07' W 027°19'717.0
2018-Apr-14 03:00N 39°08' W 027°29'917.2
2018-Apr-14 02:30N 39°09' W 027°40'917.2
2018-Apr-14 02:00N 39°10' W 027°51'917.5
2018-Apr-14 01:30N 39°12' W 028°02'917.3
2018-Apr-14 01:00N 39°13' W 028°13'917.4
2018-Apr-14 00:30N 39°14' W 028°24'917.4
2018-Apr-14 00:00N 39°15' W 028°35'1117.4
2018-Apr-13 23:24N 39°15' W 028°49'1217.2
2018-Apr-13 22:43N 39°15' W 029°04'417.4
2018-Apr-13 22:29N 39°15' W 029°09'817.7
2018-Apr-13 22:00N 39°15' W 029°20'917.4
2018-Apr-13 21:31N 39°15' W 029°31'917.0
2018-Apr-13 21:00N 39°15' W 029°43'816.8
2018-Apr-13 20:30N 39°15' W 029°53'2717.2
2018-Apr-13 18:55N 39°15' W 030°29'1717.4
2018-Apr-13 17:57N 39°15' W 030°50'817.1
2018-Apr-13 17:30N 39°16' W 031°00'1217.4
2018-Apr-13 16:50N 39°15' W 031°15'616.9
2018-Apr-13 16:30N 39°15' W 031°22'1017.3
2018-Apr-13 15:56N 39°15' W 031°35'  

Dump ship's entire track history